Time;durP1;ratioP1;P1;durP2;ratioP2;P2;SDS_P1;SDS_P2;PMS_P1;PMS_P2;Temp;Humidity;BMP_temperature;BMP_pressure;BME280_temperature;BME280_humidity;BME280_pressure;Samples;Min_cycle;Max_cycle;Signal;HPM_P1;HPM_P2
2022/11/15 00:02:04;;;;;;;;;;;11.00;82.60;;;;;;5096048;28;19920;-80
2022/11/15 00:04:30;;;;;;;;;;;11.00;82.70;;;;;;5092976;28;19916;-80
2022/11/15 00:06:55;;;;;;;;;;;11.00;83.00;;;;;;5077576;28;19918;-80
2022/11/15 00:09:20;;;;;;;;;;;11.00;83.30;;;;;;5096695;28;20322;-80
2022/11/15 00:11:46;;;;;;;;;;;11.10;83.00;;;;;;5098626;28;19919;-79
2022/11/15 00:14:11;;;;;;;;;;;11.10;83.40;;;;;;5090677;28;19913;-80
2022/11/15 00:16:37;;;;;;;;;;;11.10;83.30;;;;;;5090532;28;20009;-80
2022/11/15 00:19:02;;;;;;;;;;;11.20;82.90;;;;;;5089129;28;19913;-78
2022/11/15 00:21:28;;;;;;;;;;;11.20;83.20;;;;;;5097988;28;19942;-80
2022/11/15 00:23:53;;;;;;;;;;;11.20;83.50;;;;;;5088576;28;19912;-80
2022/11/15 00:26:18;;;;;;;;;;;11.20;83.50;;;;;;5085373;28;20394;-80
2022/11/15 00:28:44;;;;;;;;;;;11.10;83.90;;;;;;5086200;28;20410;-79
2022/11/15 00:31:11;;;;;;;;;;;11.20;83.90;;;;;;5093937;28;20643;-79
2022/11/15 00:33:37;;;;;;;;;;;11.30;83.90;;;;;;5071286;28;19923;-80
2022/11/15 00:36:04;;;;;;;;;;;11.40;83.70;;;;;;5094628;28;19912;-80
2022/11/15 00:38:30;;;;;;;;;;;11.40;83.70;;;;;;5089664;28;19955;-80
2022/11/15 00:40:55;;;;;;;;;;;11.50;83.70;;;;;;5079100;28;20007;-80
2022/11/15 00:43:21;;;;;;;;;;;11.60;83.50;;;;;;5073291;28;19930;-78
2022/11/15 00:45:46;;;;;;;;;;;11.50;83.70;;;;;;5088626;28;19920;-79
2022/11/15 00:48:12;;;;;;;;;;;11.60;83.70;;;;;;5090354;28;20061;-79
2022/11/15 00:50:37;;;;;;;;;;;11.60;83.50;;;;;;5085638;28;19920;-78
2022/11/15 00:53:03;;;;;;;;;;;11.70;83.70;;;;;;5077253;28;19930;-79
2022/11/15 00:55:28;;;;;;;;;;;11.60;83.70;;;;;;5094348;28;19919;-78
2022/11/15 00:57:53;;;;;;;;;;;11.70;83.70;;;;;;5088660;28;20288;-80
2022/11/15 01:00:19;;;;;;;;;;;11.70;83.70;;;;;;5092921;28;19935;-79
2022/11/15 01:02:44;;;;;;;;;;;11.80;83.70;;;;;;5090591;28;20024;-78
2022/11/15 01:05:10;;;;;;;;;;;11.90;83.50;;;;;;5083405;28;19917;-80
2022/11/15 01:07:35;;;;;;;;;;;12.00;83.10;;;;;;5089797;28;19918;-79
2022/11/15 01:10:01;;;;;;;;;;;11.90;83.50;;;;;;5075985;28;19920;-80
2022/11/15 01:12:26;;;;;;;;;;;11.90;83.60;;;;;;5085463;28;19912;-79
2022/11/15 01:14:52;;;;;;;;;;;11.90;83.60;;;;;;5065744;28;19916;-79
2022/11/15 01:17:17;;;;;;;;;;;11.90;83.80;;;;;;5086540;28;19912;-79
2022/11/15 01:19:42;;;;;;;;;;;12.00;83.80;;;;;;5086038;28;19912;-80
2022/11/15 01:22:08;;;;;;;;;;;12.00;83.80;;;;;;5085753;28;19913;-79
2022/11/15 01:24:33;;;;;;;;;;;12.00;83.70;;;;;;5078163;28;19912;-79
2022/11/15 01:26:59;;;;;;;;;;;12.10;83.30;;;;;;5078044;28;19916;-78
2022/11/15 01:29:24;;;;;;;;;;;12.10;83.50;;;;;;5059950;28;19956;-78
2022/11/15 01:31:50;;;;;;;;;;;12.10;83.30;;;;;;5078602;28;19916;-79
2022/11/15 01:34:15;;;;;;;;;;;12.10;83.50;;;;;;5088296;28;19912;-79
2022/11/15 01:36:41;;;;;;;;;;;12.10;83.60;;;;;;5062692;28;19966;-79
2022/11/15 01:39:07;;;;;;;;;;;12.10;83.40;;;;;;5078522;28;20535;-79
2022/11/15 01:41:33;;;;;;;;;;;12.10;83.40;;;;;;5085399;28;19916;-80
2022/11/15 01:44:17;;;;;;;;;;;12.20;83.20;;;;;;5066982;28;19919;-79
2022/11/15 01:46:45;;;;;;;;;;;12.20;83.30;;;;;;5075339;28;19916;-79
2022/11/15 01:49:12;;;;;;;;;;;12.20;83.30;;;;;;5091243;28;19916;-78
2022/11/15 01:51:39;;;;;;;;;;;12.20;83.30;;;;;;5070686;28;20264;-78
2022/11/15 01:54:07;;;;;;;;;;;12.10;83.30;;;;;;5081828;28;19927;-79
2022/11/15 01:56:37;;;;;;;;;;;12.20;83.20;;;;;;5086669;28;19918;-79
2022/11/15 01:59:04;;;;;;;;;;;12.20;83.20;;;;;;5084984;28;20280;-79
2022/11/15 02:01:30;;;;;;;;;;;12.30;83.20;;;;;;5080511;28;20256;-80
2022/11/15 02:03:58;;;;;;;;;;;12.20;83.20;;;;;;5086802;28;19911;-80
2022/11/15 02:06:24;;;;;;;;;;;12.20;83.20;;;;;;5067256;28;19927;-79
2022/11/15 02:08:50;;;;;;;;;;;12.10;83.40;;;;;;5065451;28;19923;-80
2022/11/15 02:11:16;;;;;;;;;;;12.10;83.60;;;;;;5077543;28;19912;-80
2022/11/15 02:13:41;;;;;;;;;;;12.10;83.50;;;;;;5080887;28;19920;-79
2022/11/15 02:16:25;;;;;;;;;;;12.20;83.50;;;;;;5082360;28;19916;-79
2022/11/15 02:19:02;;;;;;;;;;;12.20;83.40;;;;;;5091531;28;19921;-79
2022/11/15 02:21:30;;;;;;;;;;;12.20;83.40;;;;;;5085751;28;20395;-79
2022/11/15 02:24:11;;;;;;;;;;;12.30;83.40;;;;;;5087858;28;19931;-79
2022/11/15 02:26:51;;;;;;;;;;;12.20;83.30;;;;;;5083905;28;20269;-78
2022/11/15 02:29:28;;;;;;;;;;;12.30;83.30;;;;;;5076096;28;20205;-79
2022/11/15 02:31:59;;;;;;;;;;;12.30;83.30;;;;;;5098468;22;19925;-85
2022/11/15 02:34:25;;;;;;;;;;;12.20;83.50;;;;;;5088848;28;20423;-85
2022/11/15 02:37:03;;;;;;;;;;;12.30;83.40;;;;;;5083653;28;19912;-85
2022/11/15 02:39:39;;;;;;;;;;;12.20;83.40;;;;;;5089784;28;20156;-85
2022/11/15 02:43:56;;;;;;;;;;;12.20;83.70;;;;;;5093997;28;20389;-86
2022/11/15 02:44:56;;;;;;;;;;;12.40;83.00;;;;;;5093454;28;19965;-85
2022/11/15 02:47:23;;;;;;;;;;;12.30;83.20;;;;;;5092127;28;19916;-85
2022/11/15 02:49:53;;;;;;;;;;;12.40;83.10;;;;;;5088953;28;19975;-85
2022/11/15 02:52:22;;;;;;;;;;;12.40;83.20;;;;;;5065546;28;19969;-85
2022/11/15 02:54:55;;;;;;;;;;;12.40;83.10;;;;;;5091266;28;19912;-85
2022/11/15 02:57:32;;;;;;;;;;;12.40;83.10;;;;;;5093432;28;19912;-85
2022/11/15 03:00:03;;;;;;;;;;;12.30;83.30;;;;;;5104014;28;19972;-87
2022/11/15 03:02:39;;;;;;;;;;;12.30;83.30;;;;;;5079994;28;19912;-85
2022/11/15 03:05:23;;;;;;;;;;;12.20;83.60;;;;;;5100477;28;19924;-86
2022/11/15 03:08:08;;;;;;;;;;;12.30;83.20;;;;;;5081285;28;19916;-85
2022/11/15 03:10:52;;;;;;;;;;;12.20;83.60;;;;;;5080292;28;19916;-86
2022/11/15 03:13:23;;;;;;;;;;;12.10;83.80;;;;;;5100178;28;19912;-85
2022/11/15 03:16:09;;;;;;;;;;;12.10;84.00;;;;;;5076715;28;19920;-86
2022/11/15 03:18:40;;;;;;;;;;;12.40;83.40;;;;;;5098257;28;19912;-86
2022/11/15 03:21:07;;;;;;;;;;;12.40;83.40;;;;;;5076612;28;19920;-85
2022/11/15 03:23:34;;;;;;;;;;;12.50;83.30;;;;;;5098634;28;20442;-87
2022/11/15 03:26:00;;;;;;;;;;;12.40;83.30;;;;;;5097410;28;20273;-85
2022/11/15 03:28:49;;;;;;;;;;;12.30;83.80;;;;;;5080838;28;19916;-85
2022/11/15 03:34:02;;;;;;;;;;;12.30;83.70;;;;;;5095767;28;19927;-86
2022/11/15 03:36:29;;;;;;;;;;;12.20;84.10;;;;;;5094586;28;20363;-86
2022/11/15 03:38:56;;;;;;;;;;;12.20;84.20;;;;;;5078006;28;20277;-86
2022/11/15 03:41:24;;;;;;;;;;;12.20;84.40;;;;;;5068913;28;19916;-85
2022/11/15 03:43:56;;;;;;;;;;;12.30;84.30;;;;;;5078164;28;19923;-85
2022/11/15 03:46:27;;;;;;;;;;;12.30;84.00;;;;;;5076984;28;19955;-86
2022/11/15 03:48:56;;;;;;;;;;;12.50;83.40;;;;;;5073841;28;19977;-85
2022/11/15 03:51:22;;;;;;;;;;;12.50;83.70;;;;;;5093064;28;19916;-86
2022/11/15 03:53:47;;;;;;;;;;;12.40;83.80;;;;;;5093947;28;19927;-85
2022/11/15 03:56:13;;;;;;;;;;;12.40;83.90;;;;;;5094405;28;19920;-85
2022/11/15 03:58:38;;;;;;;;;;;12.40;83.80;;;;;;5077572;28;20007;-85
2022/11/15 04:01:04;;;;;;;;;;;12.40;84.10;;;;;;5088939;28;19927;-86
2022/11/15 04:03:29;;;;;;;;;;;12.50;84.00;;;;;;5089559;28;19912;-85
2022/11/15 04:05:54;;;;;;;;;;;12.60;83.70;;;;;;5089082;28;19912;-85
2022/11/15 04:08:20;;;;;;;;;;;12.60;83.40;;;;;;5088672;28;19950;-86
2022/11/15 04:10:48;;;;;;;;;;;12.60;83.40;;;;;;5070472;28;19957;-86
2022/11/15 04:13:13;;;;;;;;;;;12.60;83.30;;;;;;5088338;28;19912;-86
2022/11/15 04:15:39;;;;;;;;;;;12.60;83.40;;;;;;5066891;28;20011;-85
2022/11/15 04:18:04;;;;;;;;;;;12.50;83.80;;;;;;5084560;28;19962;-85
2022/11/15 04:26:01;;;;;;;;;;;12.20;84.50;;;;;;5088529;28;20006;-85
2022/11/15 04:28:27;;;;;;;;;;;12.30;84.40;;;;;;5072185;28;19912;-85
2022/11/15 04:30:52;;;;;;;;;;;12.40;84.10;;;;;;5083682;28;20274;-85
2022/11/15 04:33:18;;;;;;;;;;;12.30;84.30;;;;;;5068761;28;19920;-85
2022/11/15 04:37:11;;;;;;;;;;;12.30;84.50;;;;;;5087385;28;19912;-85
2022/11/15 04:38:29;;;;;;;;;;;12.30;84.60;;;;;;5088563;28;19920;-86
2022/11/15 04:40:54;;;;;;;;;;;12.20;84.80;;;;;;5088530;28;19919;-85
2022/11/15 04:43:20;;;;;;;;;;;12.30;84.60;;;;;;5090021;28;19923;-85
2022/11/15 04:45:45;;;;;;;;;;;12.50;84.10;;;;;;5072918;28;19912;-85
2022/11/15 04:48:11;;;;;;;;;;;12.40;84.40;;;;;;5094201;28;20001;-85
2022/11/15 04:50:36;;;;;;;;;;;12.50;84.20;;;;;;5090323;28;19947;-85
2022/11/15 04:53:01;;;;;;;;;;;12.50;84.20;;;;;;5094071;28;19915;-86
2022/11/15 04:55:27;;;;;;;;;;;12.50;84.10;;;;;;5067717;28;19912;-85
2022/11/15 04:57:59;;;;;;;;;;;12.60;83.60;;;;;;5075435;28;19912;-86
2022/11/15 05:00:25;;;;;;;;;;;12.60;83.40;;;;;;5071068;28;19928;-85
2022/11/15 05:05:36;;;;;;;;;;;12.80;83.40;;;;;;5086728;28;19935;-85
2022/11/15 05:08:01;;;;;;;;;;;12.60;83.60;;;;;;5075291;28;20381;-86
2022/11/15 05:10:27;;;;;;;;;;;12.70;83.30;;;;;;5090294;28;19938;-85
2022/11/15 05:12:52;;;;;;;;;;;12.70;83.30;;;;;;5074518;28;19919;-86
2022/11/15 05:15:18;;;;;;;;;;;12.90;83.10;;;;;;5092872;28;19916;-85
2022/11/15 05:17:43;;;;;;;;;;;12.80;83.00;;;;;;5071287;28;19912;-84
2022/11/15 05:20:09;;;;;;;;;;;12.80;83.20;;;;;;5067161;28;19938;-86
2022/11/15 05:22:34;;;;;;;;;;;12.70;83.70;;;;;;5070294;28;19912;-87
2022/11/15 05:25:00;;;;;;;;;;;12.90;83.10;;;;;;5073250;28;20534;-86
2022/11/15 05:27:25;;;;;;;;;;;12.80;83.00;;;;;;5090488;28;19920;-86
2022/11/15 05:29:51;;;;;;;;;;;12.90;83.00;;;;;;5068569;28;20010;-84
2022/11/15 05:32:17;;;;;;;;;;;12.80;83.10;;;;;;5080075;28;19927;-84
2022/11/15 05:34:42;;;;;;;;;;;12.80;83.50;;;;;;5088389;28;20344;-84
2022/11/15 05:37:08;;;;;;;;;;;12.80;83.30;;;;;;5070410;28;19912;-84
2022/11/15 05:39:34;;;;;;;;;;;12.60;83.70;;;;;;5098687;28;21715;-83
2022/11/15 05:42:04;;;;;;;;;;;12.80;83.50;;;;;;5084635;28;19922;-85
2022/11/15 05:44:31;;;;;;;;;;;12.80;83.20;;;;;;5103172;28;19919;-86
2022/11/15 05:46:56;;;;;;;;;;;12.80;83.30;;;;;;5081173;28;19912;-84
2022/11/15 05:49:24;;;;;;;;;;;12.80;83.20;;;;;;5078354;28;19926;-89
2022/11/15 05:51:49;;;;;;;;;;;12.90;83.10;;;;;;5079985;28;19916;-85
2022/11/15 05:54:15;;;;;;;;;;;12.80;83.30;;;;;;5078766;28;19919;-86
2022/11/15 05:56:41;;;;;;;;;;;12.70;83.60;;;;;;5097654;28;20278;-85
2022/11/15 05:59:07;;;;;;;;;;;12.70;83.60;;;;;;5076250;28;19923;-86
2022/11/15 06:01:33;;;;;;;;;;;12.70;83.80;;;;;;5077230;28;19912;-85
2022/11/15 06:03:58;;;;;;;;;;;12.90;83.00;;;;;;5100090;28;19918;-86
2022/11/15 06:06:24;;;;;;;;;;;12.80;83.40;;;;;;5083797;28;19927;-83
2022/11/15 06:08:49;;;;;;;;;;;13.00;83.20;;;;;;5095133;28;19920;-82
2022/11/15 06:11:15;;;;;;;;;;;12.90;83.30;;;;;;5087765;28;20337;-86
2022/11/15 06:13:40;;;;;;;;;;;12.90;83.50;;;;;;5072370;28;19958;-85
2022/11/15 06:16:06;;;;;;;;;;;12.80;83.60;;;;;;5094989;28;20377;-86
2022/11/15 06:18:32;;;;;;;;;;;12.80;83.90;;;;;;5076462;28;19931;-85
2022/11/15 06:20:58;;;;;;;;;;;12.80;84.10;;;;;;5090226;28;19912;-85
2022/11/15 06:23:23;;;;;;;;;;;12.80;84.30;;;;;;5068948;28;19919;-85
2022/11/15 06:25:49;;;;;;;;;;;12.80;84.60;;;;;;5089350;28;20301;-85
2022/11/15 06:28:14;;;;;;;;;;;12.70;84.90;;;;;;5070210;28;20333;-84
2022/11/15 06:30:40;;;;;;;;;;;12.70;85.10;;;;;;5072226;28;20470;-85
2022/11/15 06:33:05;;;;;;;;;;;12.80;84.70;;;;;;5069656;28;20397;-85
2022/11/15 06:35:32;;;;;;;;;;;12.70;84.60;;;;;;5093221;28;19912;-84
2022/11/15 06:38:02;;;;;;;;;;;12.70;84.70;;;;;;5089975;28;20027;-84
2022/11/15 06:40:27;;;;;;;;;;;12.70;84.50;;;;;;5096153;28;19912;-84
2022/11/15 06:42:57;;;;;;;;;;;12.70;84.70;;;;;;5077601;28;20274;-85
2022/11/15 06:45:22;;;;;;;;;;;12.70;84.50;;;;;;5068076;28;20324;-86
2022/11/15 06:47:48;;;;;;;;;;;12.70;84.60;;;;;;5090948;28;19919;-85
2022/11/15 06:50:13;;;;;;;;;;;12.80;83.90;;;;;;5097946;28;20368;-84
2022/11/15 06:52:39;;;;;;;;;;;12.80;83.90;;;;;;5072906;28;19924;-84
2022/11/15 06:55:04;;;;;;;;;;;12.80;83.80;;;;;;5080297;28;19912;-84
2022/11/15 06:57:30;;;;;;;;;;;12.80;83.50;;;;;;5080629;28;19912;-83
2022/11/15 06:59:55;;;;;;;;;;;12.80;83.30;;;;;;5078248;28;20391;-84
2022/11/15 07:02:21;;;;;;;;;;;12.80;83.30;;;;;;5092464;28;19918;-83
2022/11/15 07:04:46;;;;;;;;;;;12.90;82.90;;;;;;5073266;28;19999;-84
2022/11/15 07:07:11;;;;;;;;;;;12.80;83.20;;;;;;5088654;28;19915;-84
2022/11/15 07:09:37;;;;;;;;;;;12.90;83.10;;;;;;5074866;28;20007;-83
2022/11/15 07:12:02;;;;;;;;;;;12.80;83.00;;;;;;5076464;28;20065;-83
2022/11/15 07:14:28;;;;;;;;;;;12.90;82.70;;;;;;5076816;28;19915;-84
2022/11/15 07:16:53;;;;;;;;;;;12.90;82.50;;;;;;5094176;28;19920;-84
2022/11/15 07:19:19;;;;;;;;;;;12.90;82.20;;;;;;5068916;28;19916;-83
2022/11/15 07:21:44;;;;;;;;;;;12.90;82.00;;;;;;5088433;28;19957;-83
2022/11/15 07:24:10;;;;;;;;;;;12.90;82.20;;;;;;5087511;28;19958;-84
2022/11/15 07:26:35;;;;;;;;;;;13.00;81.70;;;;;;5088842;28;19935;-85
2022/11/15 07:29:00;;;;;;;;;;;13.00;81.60;;;;;;5067990;28;19916;-84
2022/11/15 07:31:26;;;;;;;;;;;13.00;81.70;;;;;;5074855;28;19969;-83
2022/11/15 07:33:51;;;;;;;;;;;13.00;81.40;;;;;;5085729;28;19913;-84
2022/11/15 07:36:17;;;;;;;;;;;13.10;81.20;;;;;;5069014;28;20661;-84
2022/11/15 07:38:42;;;;;;;;;;;13.20;80.60;;;;;;5092750;28;20390;-84
2022/11/15 07:41:07;;;;;;;;;;;13.10;80.60;;;;;;5088828;28;20357;-83
2022/11/15 07:43:33;;;;;;;;;;;13.10;80.50;;;;;;5074636;28;20381;-83
2022/11/15 07:46:03;;;;;;;;;;;13.00;80.60;;;;;;5090599;28;19918;-83
2022/11/15 07:48:29;;;;;;;;;;;12.90;81.00;;;;;;5093711;28;20289;-84
2022/11/15 07:50:54;;;;;;;;;;;13.00;80.70;;;;;;5083896;28;19978;-84
2022/11/15 07:53:20;;;;;;;;;;;12.90;80.50;;;;;;5072501;28;19918;-85
2022/11/15 07:55:45;;;;;;;;;;;12.80;80.80;;;;;;5072914;28;19934;-84
2022/11/15 07:58:11;;;;;;;;;;;12.70;80.80;;;;;;5091872;28;19908;-84
2022/11/15 08:00:37;;;;;;;;;;;12.80;81.00;;;;;;5090108;28;19958;-85
2022/11/15 08:03:09;;;;;;;;;;;12.80;80.80;;;;;;5085851;28;19913;-84
2022/11/15 08:05:35;;;;;;;;;;;12.70;81.10;;;;;;5088752;28;19912;-84
2022/11/15 08:08:01;;;;;;;;;;;12.60;81.20;;;;;;5093209;28;20353;-84
2022/11/15 08:10:26;;;;;;;;;;;12.60;81.20;;;;;;5075886;28;19956;-84
2022/11/15 08:12:58;;;;;;;;;;;12.80;80.80;;;;;;5093168;28;19921;-84
2022/11/15 08:15:23;;;;;;;;;;;12.70;80.60;;;;;;5099349;28;19965;-85
2022/11/15 08:17:53;;;;;;;;;;;12.60;81.00;;;;;;5085446;28;19954;-84
2022/11/15 08:20:19;;;;;;;;;;;12.70;80.50;;;;;;5103301;28;19916;-84
2022/11/15 08:22:44;;;;;;;;;;;12.70;80.60;;;;;;5103122;28;19912;-84
2022/11/15 08:25:10;;;;;;;;;;;12.60;80.10;;;;;;5085646;28;20503;-84
2022/11/15 08:27:35;;;;;;;;;;;12.70;80.30;;;;;;5086295;28;20281;-84
2022/11/15 08:30:01;;;;;;;;;;;12.70;80.30;;;;;;5085069;28;20421;-84
2022/11/15 08:32:26;;;;;;;;;;;12.70;79.90;;;;;;5084022;22;19933;-82
2022/11/15 08:34:52;;;;;;;;;;;12.70;79.70;;;;;;5055590;28;19958;-82
2022/11/15 08:37:17;;;;;;;;;;;12.80;79.40;;;;;;5055633;28;19924;-82
2022/11/15 08:39:43;;;;;;;;;;;12.80;79.30;;;;;;5066223;28;19912;-84
2022/11/15 08:42:08;;;;;;;;;;;12.80;79.10;;;;;;5053645;28;20000;-83
2022/11/15 08:44:34;;;;;;;;;;;12.80;79.40;;;;;;5057615;28;19940;-81
2022/11/15 08:46:59;;;;;;;;;;;12.90;78.80;;;;;;5074752;28;20019;-83
2022/11/15 08:49:24;;;;;;;;;;;12.80;78.70;;;;;;5056270;28;19920;-83
2022/11/15 08:51:50;;;;;;;;;;;12.90;78.40;;;;;;5057061;28;19916;-83
2022/11/15 08:54:15;;;;;;;;;;;13.00;77.60;;;;;;5059743;28;20413;-84
2022/11/15 08:56:41;;;;;;;;;;;12.90;77.50;;;;;;5050293;28;20267;-84
2022/11/15 08:59:06;;;;;;;;;;;12.80;77.50;;;;;;5042431;28;19913;-83
2022/11/15 09:01:32;;;;;;;;;;;13.00;77.40;;;;;;5056232;28;19909;-81
2022/11/15 09:03:57;;;;;;;;;;;13.10;77.00;;;;;;5060751;28;19919;-83
2022/11/15 09:06:23;;;;;;;;;;;13.10;76.70;;;;;;5042922;28;19984;-82
2022/11/15 09:08:48;;;;;;;;;;;13.10;76.50;;;;;;5057056;28;20011;-80
2022/11/15 09:11:16;;;;;;;;;;;13.20;76.10;;;;;;5061545;28;19936;-79
2022/11/15 09:13:41;;;;;;;;;;;13.20;75.90;;;;;;5070932;28;19943;-79
2022/11/15 09:16:07;;;;;;;;;;;13.10;75.90;;;;;;5069419;28;19922;-79
2022/11/15 09:18:32;;;;;;;;;;;13.10;76.20;;;;;;5056227;28;19913;-80
2022/11/15 09:20:58;;;;;;;;;;;13.10;75.20;;;;;;5055213;28;19909;-81
2022/11/15 09:23:24;;;;;;;;;;;13.10;75.50;;;;;;5039261;28;19919;-81
2022/11/15 09:25:50;;;;;;;;;;;13.10;75.80;;;;;;5059519;28;20003;-80
2022/11/15 09:28:16;;;;;;;;;;;13.10;75.30;;;;;;5042273;28;19966;-81
2022/11/15 09:30:41;;;;;;;;;;;13.00;75.80;;;;;;5057148;28;19921;-80
2022/11/15 09:33:08;;;;;;;;;;;13.00;75.70;;;;;;5057780;28;19925;-80
2022/11/15 09:35:33;;;;;;;;;;;13.00;75.20;;;;;;5064647;28;20202;-79
2022/11/15 09:37:58;;;;;;;;;;;13.00;75.30;;;;;;5062902;28;19975;-81
2022/11/15 09:40:24;;;;;;;;;;;13.10;75.20;;;;;;5038815;28;20053;-81
2022/11/15 09:42:52;;;;;;;;;;;13.10;74.50;;;;;;5051079;28;19913;-79
2022/11/15 09:45:40;;;;;;;;;;;13.10;74.80;;;;;;5062746;28;19913;-81
2022/11/15 09:48:25;;;;;;;;;;;13.10;74.70;;;;;;5055439;28;19920;-80
2022/11/15 09:50:53;;;;;;;;;;;13.10;74.30;;;;;;5032529;28;19917;-81
2022/11/15 09:53:24;;;;;;;;;;;13.20;74.20;;;;;;5057152;28;19917;-80
2022/11/15 09:56:00;;;;;;;;;;;13.20;74.00;;;;;;5049125;28;19909;-81
2022/11/15 09:58:25;;;;;;;;;;;13.20;73.90;;;;;;5055830;28;19956;-81
2022/11/15 10:00:52;;;;;;;;;;;13.20;73.20;;;;;;5037161;28;20271;-80
2022/11/15 10:03:22;;;;;;;;;;;13.20;72.30;;;;;;5075091;28;19917;-79
2022/11/15 10:05:50;;;;;;;;;;;13.20;72.00;;;;;;5076344;28;19916;-81
2022/11/15 10:08:21;;;;;;;;;;;13.40;71.50;;;;;;5050443;28;20007;-81
2022/11/15 10:10:48;;;;;;;;;;;13.30;71.00;;;;;;5048644;28;19913;-81
2022/11/15 10:13:22;;;;;;;;;;;13.30;71.30;;;;;;5033376;28;20312;-80
2022/11/15 10:15:48;;;;;;;;;;;13.30;70.90;;;;;;5049233;28;20286;-82
2022/11/15 10:18:19;;;;;;;;;;;13.40;70.30;;;;;;5033609;28;20004;-81
2022/11/15 10:20:55;;;;;;;;;;;13.40;70.30;;;;;;5032423;28;19917;-81
2022/11/15 10:23:21;;;;;;;;;;;13.40;70.40;;;;;;5035079;28;19968;-82
2022/11/15 10:25:47;;;;;;;;;;;13.40;70.00;;;;;;5042240;28;20859;-82
2022/11/15 10:28:16;;;;;;;;;;;13.30;70.40;;;;;;5046467;28;20000;-80
2022/11/15 10:30:42;;;;;;;;;;;13.30;69.90;;;;;;5053017;28;19917;-81
2022/11/15 10:33:25;;;;;;;;;;;13.40;70.30;;;;;;5050331;28;19921;-82
2022/11/15 10:36:09;;;;;;;;;;;13.50;69.50;;;;;;5053409;28;19928;-82
2022/11/15 10:39:04;;;;;;;;;;;13.40;69.50;;;;;;5032115;28;19913;-80
2022/11/15 10:41:31;;;;;;;;;;;13.30;69.20;;;;;;5034395;28;19912;-80
2022/11/15 10:44:06;;;;;;;;;;;13.50;69.50;;;;;;5050257;28;19920;-82
2022/11/15 10:46:32;;;;;;;;;;;13.50;69.50;;;;;;5041813;28;19912;-80
2022/11/15 10:49:12;;;;;;;;;;;13.60;69.20;;;;;;5034543;28;19924;-82
2022/11/15 10:51:41;;;;;;;;;;;13.60;68.40;;;;;;5036116;28;19932;-81
2022/11/15 10:54:08;;;;;;;;;;;13.50;68.50;;;;;;5051504;28;19965;-81
2022/11/15 10:56:34;;;;;;;;;;;13.60;68.20;;;;;;5052482;28;20424;-81
2022/11/15 10:58:59;;;;;;;;;;;13.50;68.10;;;;;;5043567;28;19913;-82
2022/11/15 11:01:26;;;;;;;;;;;13.50;67.40;;;;;;5031467;28;19921;-82
2022/11/15 11:04:01;;;;;;;;;;;13.60;67.30;;;;;;5033389;28;19919;-81
2022/11/15 11:06:27;;;;;;;;;;;13.50;67.40;;;;;;5030964;28;19925;-81
2022/11/15 11:08:57;;;;;;;;;;;13.50;67.10;;;;;;5028412;28;20063;-81
2022/11/15 11:11:23;;;;;;;;;;;13.50;67.00;;;;;;5048501;28;19913;-81
2022/11/15 11:13:49;;;;;;;;;;;13.50;68.00;;;;;;5036849;28;19913;-81
2022/11/15 11:16:14;;;;;;;;;;;13.50;67.60;;;;;;5031121;28;19916;-82
2022/11/15 11:18:49;;;;;;;;;;;13.60;67.80;;;;;;5035314;28;20098;-82
2022/11/15 11:21:18;;;;;;;;;;;13.60;67.20;;;;;;5075274;28;19947;-80
2022/11/15 11:23:47;;;;;;;;;;;13.70;66.50;;;;;;5053761;28;20011;-82
2022/11/15 11:26:29;;;;;;;;;;;13.70;66.90;;;;;;5037769;28;19917;-83
2022/11/15 11:29:14;;;;;;;;;;;13.60;66.80;;;;;;5051733;28;19917;-81
2022/11/15 11:31:47;;;;;;;;;;;13.70;66.80;;;;;;5049151;28;19917;-83
2022/11/15 11:34:14;;;;;;;;;;;13.80;65.70;;;;;;5058844;28;21332;-84
2022/11/15 11:36:45;;;;;;;;;;;13.70;66.30;;;;;;5033849;28;19948;-85
2022/11/15 11:39:16;;;;;;;;;;;13.90;63.90;;;;;;5031646;28;19913;-81
2022/11/15 11:41:45;;;;;;;;;;;13.80;63.30;;;;;;5047606;28;19913;-83
2022/11/15 11:44:32;;;;;;;;;;;13.80;63.70;;;;;;5062423;28;19916;-82
2022/11/15 11:47:00;;;;;;;;;;;13.90;63.90;;;;;;5052564;28;19991;-79
2022/11/15 11:49:36;;;;;;;;;;;13.80;63.80;;;;;;5038492;28;19932;-87
2022/11/15 11:52:05;;;;;;;;;;;13.90;62.90;;;;;;5040137;28;19920;-81
2022/11/15 11:54:35;;;;;;;;;;;13.80;62.00;;;;;;5051080;28;19980;-82
2022/11/15 11:57:03;;;;;;;;;;;13.90;62.50;;;;;;5064245;28;19955;-83
2022/11/15 11:59:33;;;;;;;;;;;13.90;60.90;;;;;;5058699;28;20020;-81
2022/11/15 12:02:02;;;;;;;;;;;13.90;61.40;;;;;;5052990;28;19920;-80
2022/11/15 12:04:34;;;;;;;;;;;14.00;61.20;;;;;;5054114;28;19996;-82
2022/11/15 12:07:03;;;;;;;;;;;13.90;62.70;;;;;;5053744;28;19913;-82
2022/11/15 12:09:42;;;;;;;;;;;14.10;63.00;;;;;;5053497;28;19975;-82
2022/11/15 12:12:10;;;;;;;;;;;14.10;62.30;;;;;;5034894;28;20066;-83
2022/11/15 12:14:45;;;;;;;;;;;14.10;60.10;;;;;;5054287;28;19913;-81
2022/11/15 12:17:11;;;;;;;;;;;14.10;61.30;;;;;;5050456;28;19917;-81
2022/11/15 12:19:37;;;;;;;;;;;14.10;61.00;;;;;;5062618;28;19971;-80
2022/11/15 12:22:10;;;;;;;;;;;14.10;61.20;;;;;;5039767;28;19912;-80
2022/11/15 12:24:56;;;;;;;;;;;14.10;57.40;;;;;;5066185;28;19904;-78
2022/11/15 12:27:30;;;;;;;;;;;14.10;57.30;;;;;;5059602;28;19909;-80
2022/11/15 12:30:00;;;;;;;;;;;14.10;56.80;;;;;;5076128;28;19914;-80
2022/11/15 12:32:34;;;;;;;;;;;14.20;57.30;;;;;;5047117;28;19984;-82
2022/11/15 12:35:01;;;;;;;;;;;14.10;57.20;;;;;;5042722;28;20002;-81
2022/11/15 12:37:35;;;;;;;;;;;14.10;56.80;;;;;;5068469;28;19918;-82
2022/11/15 12:40:03;;;;;;;;;;;14.10;56.30;;;;;;5057832;28;19987;-82
2022/11/15 12:42:39;;;;;;;;;;;14.10;59.90;;;;;;5065432;28;19912;-82
2022/11/15 12:45:23;;;;;;;;;;;14.10;59.20;;;;;;5064596;28;19916;-82
2022/11/15 12:47:48;;;;;;;;;;;14.00;60.10;;;;;;5052643;28;19912;-82
2022/11/15 12:50:14;;;;;;;;;;;14.10;61.00;;;;;;5038137;28;20067;-80
2022/11/15 12:52:59;;;;;;;;;;;14.10;60.80;;;;;;5058492;28;20358;-81
2022/11/15 12:55:30;;;;;;;;;;;14.10;61.00;;;;;;5038280;28;20007;-81
2022/11/15 12:58:15;;;;;;;;;;;14.10;60.10;;;;;;5040148;28;19912;-81
2022/11/15 13:00:41;;;;;;;;;;;14.10;60.10;;;;;;5037496;28;20316;-81
2022/11/15 13:03:16;;;;;;;;;;;14.00;60.20;;;;;;5052083;28;19999;-80
2022/11/15 13:05:42;;;;;;;;;;;14.00;60.50;;;;;;5064643;28;19901;-81
2022/11/15 13:08:07;;;;;;;;;;;14.00;61.30;;;;;;5061864;28;19913;-82
2022/11/15 13:10:33;;;;;;;;;;;14.00;61.00;;;;;;5063488;28;19920;-82
2022/11/15 13:13:03;;;;;;;;;;;14.00;61.10;;;;;;5044447;28;19916;-82
2022/11/15 13:15:51;;;;;;;;;;;14.00;60.80;;;;;;5052315;28;20024;-84
2022/11/15 13:18:34;;;;;;;;;;;14.00;60.70;;;;;;5036626;28;19916;-83
2022/11/15 13:21:00;;;;;;;;;;;13.90;61.90;;;;;;5046054;28;19912;-83
2022/11/15 13:23:25;;;;;;;;;;;13.90;61.80;;;;;;5059734;28;19921;-80
2022/11/15 13:26:03;;;;;;;;;;;13.90;62.20;;;;;;5043045;28;19941;-83
2022/11/15 13:28:35;;;;;;;;;;;13.80;62.90;;;;;;5041146;28;19912;-85
2022/11/15 13:31:21;;;;;;;;;;;13.80;62.90;;;;;;5047243;28;19916;-83
2022/11/15 13:33:46;;;;;;;;;;;13.90;63.40;;;;;;5038138;28;20072;-83
2022/11/15 13:36:14;;;;;;;;;;;13.90;63.20;;;;;;5055839;28;19908;-83
2022/11/15 13:38:42;;;;;;;;;;;14.00;62.80;;;;;;5039401;28;19913;-82
2022/11/15 13:41:28;;;;;;;;;;;13.90;63.60;;;;;;5035238;28;20393;-82
2022/11/15 13:43:54;;;;;;;;;;;13.90;62.80;;;;;;5042393;28;19920;-81
2022/11/15 13:46:20;;;;;;;;;;;14.00;62.80;;;;;;5046583;28;19921;-81
2022/11/15 13:48:46;;;;;;;;;;;14.00;62.90;;;;;;5064605;28;19958;-80
2022/11/15 13:51:27;;;;;;;;;;;14.00;62.60;;;;;;5056398;28;20035;-81
2022/11/15 13:54:19;;;;;;;;;;;13.90;63.00;;;;;;5050350;28;19986;-83
2022/11/15 13:56:57;;;;;;;;;;;13.80;63.40;;;;;;5021918;28;19912;-81
2022/11/15 13:59:25;;;;;;;;;;;13.80;63.70;;;;;;5063183;28;19912;-81
2022/11/15 14:01:52;;;;;;;;;;;13.80;63.80;;;;;;5029451;28;20294;-81
2022/11/15 14:04:19;;;;;;;;;;;13.80;63.90;;;;;;5060977;28;20385;-82
2022/11/15 14:06:46;;;;;;;;;;;13.90;63.50;;;;;;5054415;28;19935;-81
2022/11/15 14:09:12;;;;;;;;;;;13.80;63.90;;;;;;5070349;28;20015;-84
2022/11/15 14:11:37;;;;;;;;;;;13.80;64.30;;;;;;5066075;28;20420;-82
2022/11/15 14:14:09;;;;;;;;;;;13.80;64.60;;;;;;5052758;28;19965;-82
2022/11/15 14:16:35;;;;;;;;;;;13.70;65.10;;;;;;5031620;28;20356;-80
2022/11/15 14:19:00;;;;;;;;;;;13.80;64.60;;;;;;5052961;28;19925;-81
2022/11/15 14:21:26;;;;;;;;;;;13.80;64.90;;;;;;5054964;28;20058;-82
2022/11/15 14:23:51;;;;;;;;;;;13.80;65.60;;;;;;5038333;28;19920;-82
2022/11/15 14:26:30;;;;;;;;;;;13.90;64.60;;;;;;5053019;28;19917;-82
2022/11/15 14:28:56;;;;;;;;;;;13.90;65.00;;;;;;5050236;28;19916;-81
2022/11/15 14:31:21;;;;;;;;;;;13.90;64.90;;;;;;5076023;28;20001;-82
2022/11/15 14:33:47;;;;;;;;;;;13.90;65.40;;;;;;4669064;23;20015;-83
2022/11/15 14:36:18;;;;;;;;;;;13.80;65.70;;;;;;5072026;28;20003;-84